Tinerfe — EAUU — position and weather

sailwx.info

Track history (hours):
 
Tides and Currents Weather Stations Pressure Air Temp Water Temp Dewpoint Dewpoint Depression Visibility Wind Speed Wind Dir Waves Ship Positions

Tinerfe

Last reported at 2018-Feb-23 07:13 UTC. Time now 2018-Feb-24 20:10 UTC.
Position N 37°12' W 001°05'.

Length 144 m; draft 8.9 m.

Type: Ship (hazmat cat B). MMSI: 224025000.

Date/timePositionNaut miles runAvg speedWind from/ knotsBaromVisibWave heightAir tempDewpointWater temp
2018-Feb-23 07:13N 37°12' W 001°05'313.6
2018-Feb-23 07:00N 37°14' W 001°02'713.6
2018-Feb-23 06:28N 37°19' W 000°55'613.3
2018-Feb-23 05:59N 37°24' W 000°49'613.3
2018-Feb-23 05:30N 37°28' W 000°43'712.7
2018-Feb-23 04:59N 37°32' W 000°37'612.1
2018-Feb-23 04:30N 37°36' W 000°32'611.9
2018-Feb-23 04:00N 37°41' W 000°28'162 3.2
2018-Feb-21 00:44N 39°28' E 002°08'313.2
2018-Feb-21 00:29N 39°27' E 002°13'613.2
2018-Feb-21 00:00N 39°26' E 002°21'613.2
2018-Feb-20 23:30N 39°25' E 002°29'611.5
2018-Feb-20 23:00N 39°28' E 002°35'610.7
2018-Feb-20 22:29N 39°33' E 002°38'0 0.4
2018-Feb-20 21:57N 39°33' E 002°38'0 0.0
2018-Feb-20 21:29N 39°33' E 002°38'0 0.0
2018-Feb-20 20:59N 39°33' E 002°38'0 0.0
2018-Feb-20 20:29N 39°33' E 002°38'0 0.0
2018-Feb-20 19:59N 39°33' E 002°38'0 0.0
2018-Feb-20 19:29N 39°33' E 002°38'0 0.0
2018-Feb-20 18:59N 39°33' E 002°38'0 0.0
2018-Feb-20 18:29N 39°33' E 002°38'0 0.0
2018-Feb-20 17:59N 39°33' E 002°38'0 0.0
2018-Feb-20 17:29N 39°33' E 002°38'0 0.0
2018-Feb-20 16:59N 39°33' E 002°38'0 0.0
2018-Feb-20 16:29N 39°33' E 002°38'0 0.0
2018-Feb-20 15:59N 39°33' E 002°38'0 0.0
2018-Feb-20 15:29N 39°33' E 002°38'0 0.0
2018-Feb-20 14:59N 39°33' E 002°38'0 0.0
2018-Feb-20 14:29N 39°33' E 002°38'0 0.0
2018-Feb-20 13:59N 39°33' E 002°38'0 0.0
2018-Feb-20 13:29N 39°33' E 002°38'0 0.0
2018-Feb-20 12:59N 39°33' E 002°38'0 0.0
2018-Feb-20 12:29N 39°33' E 002°38'0 0.0
2018-Feb-20 11:59N 39°33' E 002°38'0 0.0
2018-Feb-20 11:29N 39°33' E 002°38'0 0.0
2018-Feb-20 10:56N 39°33' E 002°38'0 0.0
2018-Feb-20 10:29N 39°33' E 002°38'0 0.0
2018-Feb-20 09:59N 39°33' E 002°38'0 0.0
2018-Feb-20 09:29N 39°33' E 002°38'0 0.0
2018-Feb-20 08:59N 39°33' E 002°38'0 0.0
2018-Feb-20 08:26N 39°33' E 002°38'0 0.0
2018-Feb-20 07:59N 39°33' E 002°38'0 0.0
2018-Feb-20 07:29N 39°33' E 002°38'0 0.0
2018-Feb-20 06:59N 39°33' E 002°38'0 0.0
2018-Feb-20 06:29N 39°33' E 002°38'0 0.0
2018-Feb-20 05:59N 39°33' E 002°38'0 0.0
2018-Feb-20 05:29N 39°33' E 002°38'0 0.0
2018-Feb-20 04:59N 39°33' E 002°38'0 0.0
2018-Feb-20 04:29N 39°33' E 002°38'0 0.0
2018-Feb-20 03:56N 39°33' E 002°38'0 0.0
2018-Feb-20 03:29N 39°33' E 002°38'0 0.0
2018-Feb-20 02:59N 39°33' E 002°38'0 0.0
2018-Feb-20 02:29N 39°33' E 002°38'0 0.0
2018-Feb-20 01:59N 39°33' E 002°38'0 0.0
2018-Feb-20 01:29N 39°33' E 002°38'0 0.0
2018-Feb-20 00:59N 39°33' E 002°38'0 0.0
2018-Feb-20 00:29N 39°33' E 002°38'0 0.0
2018-Feb-19 23:59N 39°33' E 002°38'0 0.0
2018-Feb-19 23:29N 39°33' E 002°38'0 0.0
2018-Feb-19 22:59N 39°33' E 002°38'0 0.0
2018-Feb-19 22:29N 39°33' E 002°38'0 0.0
2018-Feb-19 22:00N 39°33' E 002°38'1 1.2
2018-Feb-19 21:30N 39°32' E 002°38'3 6.2
2018-Feb-19 21:00N 39°30' E 002°37'612.4
2018-Feb-19 20:30N 39°25' E 002°32'713.2
2018-Feb-19 20:00N 39°26' E 002°23'27 0.6
2018-Feb-18 02:22N 39°53' E 002°18'514.1
2018-Feb-18 01:59N 39°54' E 002°24'714.4
2018-Feb-18 01:29N 39°56' E 002°33'714.3
2018-Feb-18 01:00N 39°57' E 002°42'914.6
2018-Feb-18 00:21N 39°60' E 002°54'50 1.5
2018-Feb-16 13:58N 39°26' E 003°43'713.1
2018-Feb-16 13:26N 39°22' E 003°35'713.2
2018-Feb-16 12:54N 39°18' E 003°28'513.3
2018-Feb-16 12:30N 39°14' E 003°23'713.4
2018-Feb-16 11:58N 39°10' E 003°15'613.0
2018-Feb-16 11:30N 39°06' E 003°09'712.9
2018-Feb-16 11:00N 39°04' E 003°01'713.1
2018-Feb-16 10:30N 39°04' E 002°53'611.8
2018-Feb-16 10:00N 39°08' E 002°48'713.1
2018-Feb-16 09:30N 39°14' E 002°43'613.1
2018-Feb-16 09:00N 39°19' E 002°39'613.0
2018-Feb-16 08:30N 39°26' E 002°39'612.8
2018-Feb-16 08:00N 39°32' E 002°39'1 1.8
2018-Feb-16 07:30N 39°33' E 002°38'0 0.0
2018-Feb-16 06:59N 39°33' E 002°38'0 0.0
2018-Feb-16 06:29N 39°33' E 002°38'0 0.0
2018-Feb-16 05:59N 39°33' E 002°38'0 0.0
2018-Feb-16 05:29N 39°33' E 002°38'0 0.0
2018-Feb-16 04:53N 39°33' E 002°38'0 0.0
2018-Feb-16 04:29N 39°33' E 002°38'0 0.0
2018-Feb-16 03:56N 39°33' E 002°38'0 0.0
2018-Feb-16 03:29N 39°33' E 002°38'0 0.0
2018-Feb-16 02:59N 39°33' E 002°38'0 0.0
2018-Feb-16 02:29N 39°33' E 002°38'0 0.0
2018-Feb-16 01:59N 39°33' E 002°38'0 0.0
2018-Feb-16 01:29N 39°33' E 002°38'0 0.0
2018-Feb-16 00:59N 39°33' E 002°38'0 0.0
2018-Feb-16 00:29N 39°33' E 002°38'0 0.0
2018-Feb-15 23:59N 39°33' E 002°38'0 0.0
2018-Feb-15 23:29N 39°33' E 002°38'0 0.0
2018-Feb-15 22:59N 39°33' E 002°38'0 0.0
2018-Feb-15 22:29N 39°33' E 002°38'0 0.0
2018-Feb-15 21:59N 39°33' E 002°38'0 0.0
2018-Feb-15 21:29N 39°33' E 002°38'0 0.0
2018-Feb-15 20:59N 39°33' E 002°38'0 0.0
2018-Feb-15 20:29N 39°33' E 002°38'0 0.0
2018-Feb-15 19:59N 39°33' E 002°38'0 0.0
2018-Feb-15 19:26N 39°33' E 002°38'0 0.0
2018-Feb-15 18:59N 39°33' E 002°38'0 0.1
2018-Feb-15 18:30N 39°33' E 002°38'1 1.2
2018-Feb-15 18:00N 39°32' E 002°39'5 9.8
2018-Feb-15 17:30N 39°28' E 002°36'712.7
2018-Feb-15 16:59N 39°22' E 002°32'613.3
2018-Feb-15 16:30N 39°18' E 002°26'713.2
2018-Feb-15 15:59N 39°13' E 002°20'15613.0
2018-Feb-15 04:02N 37°32' W 000°12'012.8
2018-Feb-15 04:00N 37°32' W 000°13'612.8
2018-Feb-15 03:30N 37°28' W 000°19'712.7
2018-Feb-15 02:58N 37°24' W 000°26'1012.6
2018-Feb-15 02:09N 37°18' W 000°36'512.7
2018-Feb-15 01:45N 37°15' W 000°41'312.7
2018-Feb-15 01:30N 37°13' W 000°44'1212.5
2018-Feb-15 00:35N 37°06' W 000°56'212.6
2018-Feb-15 00:27N 37°05' W 000°58'812.5
2018-Feb-14 23:46N 36°60' W 001°06'20612.7
2018-Feb-14 07:33N 36°04' W 005°13'115.1
2018-Feb-14 07:29N 36°04' W 005°14'714.3
2018-Feb-14 07:00N 36°05' W 005°22'510.3
2018-Feb-14 06:31N 36°10' W 005°24'1 0.0
2018-Feb-13 09:29N 36°11' W 005°24'2 3.6
2018-Feb-13 09:00N 36°09' W 005°24'4 7.3
2018-Feb-13 08:30N 36°05' W 005°22'510.5
2018-Feb-13 08:00N 36°04' W 005°16'  
Track history (hours):
 
Tides and Currents Weather Stations Pressure Air Temp Water Temp Dewpoint Dewpoint Depression Visibility Wind Speed Wind Dir Waves Ship Positions

Tinerfe

Last reported at 2018-Feb-23 07:13 UTC. Time now 2018-Feb-24 20:10 UTC.
Position N 37°12' W 001°05'.

Length 144 m; draft 8.9 m.

Type: Ship (hazmat cat B). MMSI: 224025000.

Date/timePositionNaut miles runAvg speedWind from/ knotsBaromVisibWave heightAir tempDewpointWater temp
2018-Feb-23 07:13N 37°12' W 001°05'313.6
2018-Feb-23 07:00N 37°14' W 001°02'713.6
2018-Feb-23 06:28N 37°19' W 000°55'613.3
2018-Feb-23 05:59N 37°24' W 000°49'613.3
2018-Feb-23 05:30N 37°28' W 000°43'712.7
2018-Feb-23 04:59N 37°32' W 000°37'612.1
2018-Feb-23 04:30N 37°36' W 000°32'611.9
2018-Feb-23 04:00N 37°41' W 000°28'162 3.2
2018-Feb-21 00:44N 39°28' E 002°08'313.2
2018-Feb-21 00:29N 39°27' E 002°13'613.2
2018-Feb-21 00:00N 39°26' E 002°21'613.2
2018-Feb-20 23:30N 39°25' E 002°29'611.5
2018-Feb-20 23:00N 39°28' E 002°35'610.7
2018-Feb-20 22:29N 39°33' E 002°38'0 0.4
2018-Feb-20 21:57N 39°33' E 002°38'0 0.0
2018-Feb-20 21:29N 39°33' E 002°38'0 0.0
2018-Feb-20 20:59N 39°33' E 002°38'0 0.0
2018-Feb-20 20:29N 39°33' E 002°38'0 0.0
2018-Feb-20 19:59N 39°33' E 002°38'0 0.0
2018-Feb-20 19:29N 39°33' E 002°38'0 0.0
2018-Feb-20 18:59N 39°33' E 002°38'0 0.0
2018-Feb-20 18:29N 39°33' E 002°38'0 0.0
2018-Feb-20 17:59N 39°33' E 002°38'0 0.0
2018-Feb-20 17:29N 39°33' E 002°38'0 0.0
2018-Feb-20 16:59N 39°33' E 002°38'0 0.0
2018-Feb-20 16:29N 39°33' E 002°38'0 0.0
2018-Feb-20 15:59N 39°33' E 002°38'0 0.0
2018-Feb-20 15:29N 39°33' E 002°38'0 0.0
2018-Feb-20 14:59N 39°33' E 002°38'0 0.0
2018-Feb-20 14:29N 39°33' E 002°38'0 0.0
2018-Feb-20 13:59N 39°33' E 002°38'0 0.0
2018-Feb-20 13:29N 39°33' E 002°38'0 0.0
2018-Feb-20 12:59N 39°33' E 002°38'0 0.0
2018-Feb-20 12:29N 39°33' E 002°38'0 0.0
2018-Feb-20 11:59N 39°33' E 002°38'0 0.0
2018-Feb-20 11:29N 39°33' E 002°38'0 0.0
2018-Feb-20 10:56N 39°33' E 002°38'0 0.0
2018-Feb-20 10:29N 39°33' E 002°38'0 0.0
2018-Feb-20 09:59N 39°33' E 002°38'0 0.0
2018-Feb-20 09:29N 39°33' E 002°38'0 0.0
2018-Feb-20 08:59N 39°33' E 002°38'0 0.0
2018-Feb-20 08:26N 39°33' E 002°38'0 0.0
2018-Feb-20 07:59N 39°33' E 002°38'0 0.0
2018-Feb-20 07:29N 39°33' E 002°38'0 0.0
2018-Feb-20 06:59N 39°33' E 002°38'0 0.0
2018-Feb-20 06:29N 39°33' E 002°38'0 0.0
2018-Feb-20 05:59N 39°33' E 002°38'0 0.0
2018-Feb-20 05:29N 39°33' E 002°38'0 0.0
2018-Feb-20 04:59N 39°33' E 002°38'0 0.0
2018-Feb-20 04:29N 39°33' E 002°38'0 0.0
2018-Feb-20 03:56N 39°33' E 002°38'0 0.0
2018-Feb-20 03:29N 39°33' E 002°38'0 0.0
2018-Feb-20 02:59N 39°33' E 002°38'0 0.0
2018-Feb-20 02:29N 39°33' E 002°38'0 0.0
2018-Feb-20 01:59N 39°33' E 002°38'0 0.0
2018-Feb-20 01:29N 39°33' E 002°38'0 0.0
2018-Feb-20 00:59N 39°33' E 002°38'0 0.0
2018-Feb-20 00:29N 39°33' E 002°38'0 0.0
2018-Feb-19 23:59N 39°33' E 002°38'0 0.0
2018-Feb-19 23:29N 39°33' E 002°38'0 0.0
2018-Feb-19 22:59N 39°33' E 002°38'0 0.0
2018-Feb-19 22:29N 39°33' E 002°38'0 0.0
2018-Feb-19 22:00N 39°33' E 002°38'1 1.2
2018-Feb-19 21:30N 39°32' E 002°38'3 6.2
2018-Feb-19 21:00N 39°30' E 002°37'612.4
2018-Feb-19 20:30N 39°25' E 002°32'713.2
2018-Feb-19 20:00N 39°26' E 002°23'27 0.6
2018-Feb-18 02:22N 39°53' E 002°18'514.1
2018-Feb-18 01:59N 39°54' E 002°24'714.4
2018-Feb-18 01:29N 39°56' E 002°33'714.3
2018-Feb-18 01:00N 39°57' E 002°42'914.6
2018-Feb-18 00:21N 39°60' E 002°54'50 1.5
2018-Feb-16 13:58N 39°26' E 003°43'713.1
2018-Feb-16 13:26N 39°22' E 003°35'713.2
2018-Feb-16 12:54N 39°18' E 003°28'513.3
2018-Feb-16 12:30N 39°14' E 003°23'713.4
2018-Feb-16 11:58N 39°10' E 003°15'613.0
2018-Feb-16 11:30N 39°06' E 003°09'712.9
2018-Feb-16 11:00N 39°04' E 003°01'713.1
2018-Feb-16 10:30N 39°04' E 002°53'611.8
2018-Feb-16 10:00N 39°08' E 002°48'713.1
2018-Feb-16 09:30N 39°14' E 002°43'613.1
2018-Feb-16 09:00N 39°19' E 002°39'613.0
2018-Feb-16 08:30N 39°26' E 002°39'612.8
2018-Feb-16 08:00N 39°32' E 002°39'1 1.8
2018-Feb-16 07:30N 39°33' E 002°38'0 0.0
2018-Feb-16 06:59N 39°33' E 002°38'0 0.0
2018-Feb-16 06:29N 39°33' E 002°38'0 0.0
2018-Feb-16 05:59N 39°33' E 002°38'0 0.0
2018-Feb-16 05:29N 39°33' E 002°38'0 0.0
2018-Feb-16 04:53N 39°33' E 002°38'0 0.0
2018-Feb-16 04:29N 39°33' E 002°38'0 0.0
2018-Feb-16 03:56N 39°33' E 002°38'0 0.0
2018-Feb-16 03:29N 39°33' E 002°38'0 0.0
2018-Feb-16 02:59N 39°33' E 002°38'0 0.0
2018-Feb-16 02:29N 39°33' E 002°38'0 0.0
2018-Feb-16 01:59N 39°33' E 002°38'0 0.0
2018-Feb-16 01:29N 39°33' E 002°38'0 0.0
2018-Feb-16 00:59N 39°33' E 002°38'0 0.0
2018-Feb-16 00:29N 39°33' E 002°38'0 0.0
2018-Feb-15 23:59N 39°33' E 002°38'0 0.0
2018-Feb-15 23:29N 39°33' E 002°38'0 0.0
2018-Feb-15 22:59N 39°33' E 002°38'0 0.0
2018-Feb-15 22:29N 39°33' E 002°38'0 0.0
2018-Feb-15 21:59N 39°33' E 002°38'0 0.0
2018-Feb-15 21:29N 39°33' E 002°38'0 0.0
2018-Feb-15 20:59N 39°33' E 002°38'0 0.0
2018-Feb-15 20:29N 39°33' E 002°38'0 0.0
2018-Feb-15 19:59N 39°33' E 002°38'0 0.0
2018-Feb-15 19:26N 39°33' E 002°38'0 0.0
2018-Feb-15 18:59N 39°33' E 002°38'0 0.1
2018-Feb-15 18:30N 39°33' E 002°38'1 1.2
2018-Feb-15 18:00N 39°32' E 002°39'5 9.8
2018-Feb-15 17:30N 39°28' E 002°36'712.7
2018-Feb-15 16:59N 39°22' E 002°32'613.3
2018-Feb-15 16:30N 39°18' E 002°26'713.2
2018-Feb-15 15:59N 39°13' E 002°20'15613.0
2018-Feb-15 04:02N 37°32' W 000°12'012.8
2018-Feb-15 04:00N 37°32' W 000°13'612.8
2018-Feb-15 03:30N 37°28' W 000°19'712.7
2018-Feb-15 02:58N 37°24' W 000°26'1012.6
2018-Feb-15 02:09N 37°18' W 000°36'512.7
2018-Feb-15 01:45N 37°15' W 000°41'312.7
2018-Feb-15 01:30N 37°13' W 000°44'1212.5
2018-Feb-15 00:35N 37°06' W 000°56'212.6
2018-Feb-15 00:27N 37°05' W 000°58'812.5
2018-Feb-14 23:46N 36°60' W 001°06'20612.7
2018-Feb-14 07:33N 36°04' W 005°13'115.1
2018-Feb-14 07:29N 36°04' W 005°14'714.3
2018-Feb-14 07:00N 36°05' W 005°22'510.3
2018-Feb-14 06:31N 36°10' W 005°24'1 0.0
2018-Feb-13 09:29N 36°11' W 005°24'2 3.6
2018-Feb-13 09:00N 36°09' W 005°24'4 7.3
2018-Feb-13 08:30N 36°05' W 005°22'510.5
2018-Feb-13 08:00N 36°04' W 005°16'  

Dump ship's entire track history